createdAt,value
2022-09-22T00:01:27.766Z,100.00
2022-09-22T00:03:56.789Z,100.00
2022-09-22T00:06:29.226Z,100.00
2022-09-22T00:09:02.028Z,100.00
2022-09-22T00:11:31.232Z,100.00
2022-09-22T00:14:02.142Z,100.00
2022-09-22T00:16:31.808Z,100.00
2022-09-22T00:18:58.837Z,100.00
2022-09-22T00:21:31.047Z,100.00
2022-09-22T00:23:57.900Z,100.00
2022-09-22T00:26:25.027Z,100.00
2022-09-22T00:28:52.833Z,100.00
2022-09-22T00:31:25.753Z,100.00
2022-09-22T00:33:54.088Z,100.00
2022-09-22T00:36:25.808Z,100.00
2022-09-22T00:38:54.350Z,100.00
2022-09-22T00:41:25.348Z,100.00
2022-09-22T00:44:29.205Z,100.00
2022-09-22T00:47:05.089Z,100.00
2022-09-22T00:49:36.256Z,100.00
2022-09-22T00:52:02.885Z,100.00
2022-09-22T00:54:29.893Z,100.00
2022-09-22T00:57:11.685Z,100.00
2022-09-22T00:59:39.957Z,100.00
2022-09-22T01:02:06.854Z,100.00
2022-09-22T01:04:33.690Z,100.00
2022-09-22T01:07:01.798Z,100.00
2022-09-22T01:09:29.783Z,100.00
2022-09-22T01:11:56.537Z,100.00
2022-09-22T01:14:46.665Z,100.00
2022-09-22T01:17:34.276Z,100.00
2022-09-22T01:20:24.442Z,100.00
2022-09-22T01:23:09.784Z,100.00
2022-09-22T01:25:39.767Z,100.00
2022-09-22T01:28:15.530Z,100.00
2022-09-22T01:31:14.788Z,100.00
2022-09-22T01:33:56.378Z,100.00
2022-09-22T01:36:32.019Z,100.00
2022-09-22T01:39:13.755Z,100.00
2022-09-22T01:42:05.957Z,100.00
2022-09-22T01:44:45.471Z,100.00
2022-09-22T01:47:21.005Z,100.00
2022-09-22T01:50:00.484Z,100.00
2022-09-22T01:52:29.705Z,100.00
2022-09-22T01:54:59.144Z,100.00
2022-09-22T01:57:53.484Z,100.00
2022-09-22T02:00:20.778Z,100.00
2022-09-22T02:02:57.362Z,100.00
2022-09-22T02:05:36.636Z,100.00
2022-09-22T02:08:08.172Z,100.00
2022-09-22T02:10:40.458Z,100.00
2022-09-22T02:13:07.196Z,100.00
2022-09-22T02:15:52.493Z,100.00
2022-09-22T02:18:27.431Z,100.00
2022-09-22T02:20:54.262Z,100.00
2022-09-22T02:23:20.798Z,100.00
2022-09-22T02:25:49.464Z,100.00
2022-09-22T02:28:20.532Z,100.00
2022-09-22T02:31:10.541Z,100.00
2022-09-22T02:33:40.662Z,100.00
2022-09-22T02:36:44.096Z,100.00
2022-09-22T02:39:45.306Z,100.00
2022-09-22T02:42:26.875Z,100.00
2022-09-22T02:45:15.392Z,100.00
2022-09-22T02:48:03.413Z,100.00
2022-09-22T02:50:31.719Z,100.00
2022-09-22T02:53:18.653Z,100.00
2022-09-22T02:55:46.147Z,100.00
2022-09-22T02:58:16.034Z,100.00
2022-09-22T03:00:44.168Z,100.00
2022-09-22T03:03:11.658Z,100.00
2022-09-22T03:05:39.175Z,100.00
2022-09-22T03:08:06.297Z,100.00
2022-09-22T03:10:33.633Z,100.00
2022-09-22T03:13:16.086Z,100.00
2022-09-22T03:15:44.795Z,100.00
2022-09-22T03:18:11.442Z,100.00
2022-09-22T03:20:38.055Z,100.00
2022-09-22T03:23:04.891Z,100.00
2022-09-22T03:25:31.431Z,100.00
2022-09-22T03:27:58.060Z,100.00
2022-09-22T03:30:24.796Z,98.78
2022-09-22T03:32:51.362Z,99.96
2022-09-22T03:35:17.876Z,99.75
2022-09-22T03:37:46.140Z,99.77
2022-09-22T03:40:12.948Z,100.00
2022-09-22T03:42:39.572Z,100.00
2022-09-22T03:45:06.474Z,100.00
2022-09-22T03:47:33.339Z,100.00
2022-09-22T03:49:59.919Z,100.00
2022-09-22T03:52:26.441Z,100.00
2022-09-22T03:54:54.234Z,100.00
2022-09-22T03:57:20.800Z,100.00
2022-09-22T03:59:47.340Z,100.00
2022-09-22T04:02:14.179Z,100.00
2022-09-22T04:04:41.403Z,100.00
2022-09-22T04:07:07.932Z,100.00
2022-09-22T04:09:34.930Z,100.00
2022-09-22T04:12:01.931Z,100.00
2022-09-22T04:14:28.467Z,100.00
2022-09-22T04:16:55.243Z,100.00
2022-09-22T04:19:22.872Z,100.00
2022-09-22T04:21:54.641Z,100.00
2022-09-22T04:24:24.542Z,100.00
2022-09-22T04:27:15.238Z,100.00
2022-09-22T04:29:37.927Z,100.00
2022-09-22T04:32:04.731Z,100.00
2022-09-22T04:34:31.281Z,100.00
2022-09-22T04:36:57.869Z,100.00
2022-09-22T04:39:24.425Z,100.00
2022-09-22T04:41:51.023Z,100.00
2022-09-22T04:44:17.570Z,100.00
2022-09-22T04:46:46.286Z,100.00
2022-09-22T04:49:14.046Z,100.00
2022-09-22T04:51:40.624Z,100.00
2022-09-22T04:54:07.288Z,100.00
2022-09-22T04:56:33.893Z,100.00
2022-09-22T04:59:00.558Z,100.00
2022-09-22T05:01:27.517Z,100.00
2022-09-22T05:03:54.332Z,100.00
2022-09-22T05:06:20.883Z,100.00
2022-09-22T05:08:47.417Z,100.00
2022-09-22T05:11:14.550Z,100.00
2022-09-22T05:13:41.256Z,100.00
2022-09-22T05:16:08.785Z,100.00
2022-09-22T05:18:35.585Z,100.00
2022-09-22T05:21:03.469Z,100.00
2022-09-22T05:23:31.957Z,100.00
2022-09-22T05:25:58.577Z,100.00
2022-09-22T05:28:25.108Z,100.00
2022-09-22T05:30:52.338Z,100.00
2022-09-22T05:33:19.107Z,100.00
2022-09-22T05:35:45.927Z,100.00
2022-09-22T05:38:12.581Z,100.00
2022-09-22T05:40:39.204Z,100.00
2022-09-22T05:43:05.762Z,100.00
2022-09-22T05:45:32.362Z,100.00
2022-09-22T05:47:58.955Z,100.00
2022-09-22T05:50:25.500Z,100.00
2022-09-22T05:53:01.343Z,100.00
2022-09-22T05:55:27.866Z,100.00
2022-09-22T05:57:57.713Z,100.00
2022-09-22T06:00:24.495Z,100.00
2022-09-22T06:02:51.106Z,100.00
2022-09-22T06:05:19.505Z,100.00
2022-09-22T06:07:46.532Z,100.00
2022-09-22T06:10:13.278Z,100.00
2022-09-22T06:12:40.171Z,100.00
2022-09-22T06:15:07.683Z,100.00
2022-09-22T06:17:34.274Z,100.00
2022-09-22T06:20:01.120Z,100.00
2022-09-22T06:22:27.669Z,100.00
2022-09-22T06:24:54.276Z,100.00
2022-09-22T06:27:20.820Z,100.00
2022-09-22T06:29:47.376Z,100.00
2022-09-22T06:32:13.964Z,100.00
2022-09-22T06:34:40.528Z,100.00
2022-09-22T06:37:09.834Z,100.00
2022-09-22T06:39:37.755Z,100.00
2022-09-22T06:42:05.476Z,100.00
2022-09-22T06:44:35.787Z,100.00
2022-09-22T06:47:05.452Z,100.00
2022-09-22T06:49:32.241Z,100.00
2022-09-22T06:51:58.767Z,100.00
2022-09-22T06:54:25.833Z,100.00
2022-09-22T06:56:52.603Z,100.00
2022-09-22T06:59:19.742Z,100.00
2022-09-22T07:01:46.711Z,100.00
2022-09-22T07:04:13.863Z,100.00
2022-09-22T07:06:41.176Z,100.00
2022-09-22T07:09:09.336Z,100.00
2022-09-22T07:11:40.004Z,100.00
2022-09-22T07:14:08.675Z,100.00
2022-09-22T07:16:36.329Z,100.00
2022-09-22T07:19:03.366Z,100.00
2022-09-22T07:21:35.051Z,100.00
2022-09-22T07:24:02.273Z,100.00
2022-09-22T07:26:34.231Z,100.00
2022-09-22T07:29:03.295Z,100.00
2022-09-22T07:31:32.121Z,100.00
2022-09-22T07:34:01.718Z,99.50
2022-09-22T07:36:31.091Z,99.53
2022-09-22T08:03:10.034Z,96.86
2022-09-22T08:05:36.560Z,96.70
2022-09-22T08:08:03.805Z,96.57
2022-09-22T08:10:32.307Z,96.71
2022-09-22T08:13:01.096Z,97.61
2022-09-22T08:15:27.670Z,97.67
2022-09-22T08:18:03.827Z,97.41
2022-09-22T08:20:30.456Z,98.15
2022-09-22T08:23:03.408Z,98.96
2022-09-22T08:25:30.549Z,99.41
2022-09-22T08:27:57.221Z,99.56
2022-09-22T08:30:23.819Z,100.00
2022-09-22T08:32:50.452Z,100.00
2022-09-22T08:35:17.526Z,98.85
2022-09-22T08:37:44.495Z,99.87
2022-09-22T08:40:23.716Z,99.15
2022-09-22T08:42:55.653Z,98.41
2022-09-22T08:45:31.405Z,97.07
2022-09-22T08:48:33.291Z,96.62
2022-09-22T08:51:24.134Z,96.14
2022-09-22T08:53:51.691Z,96.72
2022-09-22T08:56:21.426Z,94.07
2022-09-22T08:59:08.109Z,94.28
2022-09-22T09:01:35.366Z,93.79
2022-09-22T09:04:01.949Z,93.47
2022-09-22T09:06:43.219Z,94.79
2022-09-22T09:09:38.252Z,95.01
2022-09-22T09:12:10.145Z,94.30
2022-09-22T09:14:50.014Z,95.00
2022-09-22T09:17:28.979Z,95.80
2022-09-22T09:19:58.094Z,95.24
2022-09-22T09:22:32.130Z,94.42
2022-09-22T09:25:23.363Z,95.05
2022-09-22T09:27:55.579Z,95.26
2022-09-22T09:30:22.217Z,95.43
2022-09-22T09:33:14.526Z,93.88
2022-09-22T09:35:45.301Z,93.58
2022-09-22T09:38:14.951Z,93.89
2022-09-22T09:40:42.293Z,92.05
2022-09-22T09:43:10.668Z,92.02
2022-09-22T09:45:55.647Z,92.18
2022-09-22T09:48:34.236Z,91.51
2022-09-22T09:51:05.331Z,92.22
2022-09-22T09:53:40.925Z,92.75
2022-09-22T09:56:27.256Z,92.88
2022-09-22T09:59:25.880Z,93.20
2022-09-22T10:01:55.342Z,93.48
2022-09-22T10:04:30.116Z,92.22
2022-09-22T10:07:10.512Z,92.15
2022-09-22T10:09:37.450Z,92.87
2022-09-22T10:12:04.280Z,93.92
2022-09-22T10:14:35.202Z,94.48
2022-09-22T10:17:03.892Z,93.40
2022-09-22T10:19:34.571Z,92.56
2022-09-22T10:22:25.114Z,93.85
2022-09-22T10:24:56.027Z,93.40
2022-09-22T10:27:24.391Z,92.64
2022-09-22T10:30:21.364Z,93.01
2022-09-22T10:33:05.060Z,93.40
2022-09-22T10:35:33.727Z,93.76
2022-09-22T10:38:09.942Z,93.27
2022-09-22T10:40:40.912Z,91.41
2022-09-22T10:43:26.310Z,91.55
2022-09-22T10:46:29.187Z,91.65
2022-09-22T10:49:04.143Z,90.88
2022-09-22T10:51:56.622Z,90.26
2022-09-22T10:54:29.040Z,89.35
2022-09-22T10:56:59.365Z,89.82
2022-09-22T11:00:01.720Z,89.83
2022-09-22T11:02:40.075Z,90.08
2022-09-22T11:05:18.903Z,89.81
2022-09-22T11:08:13.086Z,84.97
2022-09-22T11:11:26.606Z,85.43
2022-09-22T11:14:18.095Z,85.09
2022-09-22T11:17:06.026Z,85.72
2022-09-22T11:20:00.920Z,85.08
2022-09-22T11:22:30.189Z,85.83
2022-09-22T11:25:24.750Z,85.97
2022-09-22T11:27:56.919Z,84.99
2022-09-22T11:30:24.112Z,83.68
2022-09-22T11:33:10.912Z,83.99
2022-09-22T11:36:11.310Z,80.35
2022-09-22T11:39:02.247Z,80.91
2022-09-22T11:41:43.744Z,80.08
2022-09-22T11:44:14.419Z,81.10
2022-09-22T11:46:55.194Z,81.17
2022-09-22T11:49:46.541Z,81.65
2022-09-22T11:52:43.712Z,81.92
2022-09-22T11:55:52.290Z,83.75
2022-09-22T11:58:23.276Z,80.63
2022-09-22T12:01:10.912Z,80.02
2022-09-22T12:03:46.460Z,76.78
2022-09-22T12:06:17.704Z,78.30
2022-09-22T12:09:45.718Z,77.76
2022-09-22T12:12:18.581Z,78.60
2022-09-22T12:14:55.651Z,79.65
2022-09-22T12:17:29.479Z,78.72
2022-09-22T12:20:16.306Z,78.93
2022-09-22T12:22:51.563Z,78.19
2022-09-22T12:25:48.807Z,77.74
2022-09-22T12:28:23.187Z,76.84
2022-09-22T12:31:08.113Z,75.58
2022-09-22T12:33:37.336Z,76.13
2022-09-22T12:36:04.293Z,74.08
2022-09-22T12:38:31.537Z,73.76
2022-09-22T12:41:02.966Z,75.25
2022-09-22T12:43:31.385Z,71.16
2022-09-22T12:46:00.115Z,71.87
2022-09-22T12:48:37.696Z,70.16
2022-09-22T12:51:26.080Z,70.61
2022-09-22T12:54:25.317Z,69.92
2022-09-22T12:56:54.896Z,68.64
2022-09-22T12:59:39.493Z,69.27
2022-09-22T13:02:15.998Z,70.28
2022-09-22T13:05:04.373Z,69.82
2022-09-22T13:07:43.773Z,70.76
2022-09-22T13:10:25.201Z,71.38
2022-09-22T13:13:06.748Z,72.10
2022-09-22T13:15:45.826Z,71.96
2022-09-22T13:18:30.986Z,71.40
2022-09-22T13:20:59.697Z,71.43
2022-09-22T13:23:26.675Z,71.92
2022-09-22T13:25:53.947Z,71.75
2022-09-22T13:28:21.790Z,70.33
2022-09-22T13:31:03.419Z,72.06
2022-09-22T13:33:34.810Z,73.03
2022-09-22T13:36:18.832Z,72.57
2022-09-22T13:38:51.043Z,72.86
2022-09-22T13:41:24.235Z,72.75
2022-09-22T13:43:56.043Z,72.05
2022-09-22T13:46:26.642Z,71.45
2022-09-22T13:48:56.871Z,72.40
2022-09-22T13:51:25.917Z,72.12
2022-09-22T13:53:55.346Z,71.47
2022-09-22T13:56:25.326Z,72.59
2022-09-22T13:58:56.509Z,70.87
2022-09-22T14:01:28.392Z,70.94
2022-09-22T14:03:55.806Z,71.75
2022-09-22T14:06:28.694Z,72.10
2022-09-22T14:08:56.257Z,71.93
2022-09-22T14:11:28.177Z,72.19
2022-09-22T14:13:55.061Z,72.19
2022-09-22T14:16:21.733Z,71.57
2022-09-22T14:18:52.442Z,71.49
2022-09-22T14:21:19.546Z,72.41
2022-09-22T14:23:49.270Z,72.08
2022-09-22T14:26:24.611Z,72.70
2022-09-22T14:28:52.156Z,73.31
2022-09-22T14:31:24.820Z,72.40
2022-09-22T14:33:51.768Z,72.09
2022-09-22T14:36:21.866Z,71.25
2022-09-22T14:39:04.520Z,71.91
2022-09-22T14:41:37.294Z,71.98
2022-09-22T14:44:35.329Z,72.34
2022-09-22T14:47:09.958Z,72.71
2022-09-22T14:49:42.462Z,72.32
2022-09-22T14:52:27.256Z,72.15
2022-09-22T14:54:56.536Z,70.29
2022-09-22T14:57:23.411Z,70.30
2022-09-22T15:00:14.753Z,69.49
2022-09-22T15:02:46.128Z,70.02
2022-09-22T15:05:29.437Z,70.61
2022-09-22T15:07:57.639Z,69.85
2022-09-22T15:10:30.087Z,69.52
2022-09-22T15:13:18.330Z,69.16
2022-09-22T15:15:47.578Z,69.89
2022-09-22T15:18:16.271Z,70.25
2022-09-22T15:21:14.682Z,70.76
2022-09-22T15:23:45.286Z,71.29
2022-09-22T15:26:25.443Z,71.15
2022-09-22T15:28:54.695Z,72.19
2022-09-22T15:31:28.392Z,72.37
2022-09-22T15:33:56.477Z,72.17
2022-09-22T15:36:25.762Z,72.10
2022-09-22T15:38:59.773Z,71.90
2022-09-22T15:41:27.506Z,72.47
2022-09-22T15:43:54.247Z,72.99
2022-09-22T15:46:41.405Z,72.89
2022-09-22T15:49:20.916Z,73.54
2022-09-22T15:51:49.477Z,74.16
2022-09-22T15:54:18.420Z,74.01
2022-09-22T15:56:48.020Z,74.51
2022-09-22T15:59:19.750Z,74.87
2022-09-22T16:01:46.614Z,74.90
2022-09-22T16:04:13.502Z,75.15
2022-09-22T16:06:42.366Z,75.60
2022-09-22T16:09:16.162Z,75.61
2022-09-22T16:11:43.134Z,75.77
2022-09-22T16:14:11.615Z,76.69
2022-09-22T16:16:38.972Z,77.25
2022-09-22T16:19:12.398Z,77.65
2022-09-22T16:21:41.706Z,78.18
2022-09-22T16:24:10.731Z,78.46
2022-09-22T16:26:39.416Z,78.96
2022-09-22T16:29:07.515Z,79.27
2022-09-22T16:31:35.221Z,79.70
2022-09-22T16:34:03.748Z,80.14
2022-09-22T16:36:35.271Z,80.78
2022-09-22T16:39:03.064Z,81.40
2022-09-22T16:41:32.214Z,81.37
2022-09-22T16:43:59.051Z,81.76
2022-09-22T16:46:27.964Z,81.33
2022-09-22T16:49:06.197Z,80.84
2022-09-22T16:51:35.546Z,81.23
2022-09-22T16:54:02.556Z,81.67
2022-09-22T16:56:31.629Z,81.82
2022-09-22T16:59:01.365Z,81.98
2022-09-22T17:01:29.224Z,82.99
2022-09-22T17:03:55.776Z,83.21
2022-09-22T17:06:26.825Z,83.17
2022-09-22T17:08:56.945Z,83.59
2022-09-22T17:11:29.854Z,83.74
2022-09-22T17:14:00.891Z,83.93
2022-09-22T17:16:33.708Z,84.05
2022-09-22T17:19:03.248Z,84.35
2022-09-22T17:21:34.527Z,85.23
2022-09-22T17:24:02.690Z,85.48
2022-09-22T17:26:34.863Z,85.61
2022-09-22T17:29:01.831Z,85.87
2022-09-22T17:31:31.244Z,85.73
2022-09-22T17:33:58.452Z,85.74
2022-09-22T17:36:26.286Z,85.89
2022-09-22T17:38:57.872Z,85.92
2022-09-22T17:41:27.840Z,85.78
2022-09-22T17:43:57.734Z,85.90
2022-09-22T17:46:31.635Z,86.12
2022-09-22T17:49:17.568Z,86.21
2022-09-22T17:52:05.241Z,86.30
2022-09-22T17:54:52.579Z,86.91
2022-09-22T17:57:24.463Z,87.06
2022-09-22T17:59:52.100Z,87.58
2022-09-22T18:02:20.846Z,88.22
2022-09-22T18:04:48.242Z,88.56
2022-09-22T18:07:17.924Z,88.52
2022-09-22T18:09:47.004Z,88.60
2022-09-22T18:12:20.040Z,88.69
2022-09-22T18:14:48.166Z,88.73
2022-09-22T18:17:17.360Z,88.46
2022-09-22T18:19:44.169Z,89.30
2022-09-22T18:22:21.280Z,89.22
2022-09-22T18:24:52.333Z,89.62
2022-09-22T18:27:19.399Z,89.57
2022-09-22T18:29:49.996Z,89.53
2022-09-22T18:32:20.021Z,89.69
2022-09-22T18:34:47.551Z,89.78
2022-09-22T18:37:15.782Z,89.75
2022-09-22T18:39:45.405Z,89.76
2022-09-22T18:42:13.566Z,89.88
2022-09-22T18:44:41.472Z,90.23
2022-09-22T18:47:13.012Z,90.34
2022-09-22T18:49:40.706Z,90.14
2022-09-22T18:52:07.924Z,90.33
2022-09-22T18:54:35.877Z,90.74
2022-09-22T18:57:05.366Z,91.71
2022-09-22T18:59:31.930Z,91.77
2022-09-22T19:01:58.742Z,91.39
2022-09-22T19:04:26.907Z,92.01
2022-09-22T19:07:13.912Z,92.45
2022-09-22T19:09:41.240Z,92.84
2022-09-22T19:12:09.792Z,92.51
2022-09-22T19:14:38.918Z,92.38
2022-09-22T19:17:07.153Z,92.90
2022-09-22T19:19:38.364Z,92.70
2022-09-22T19:22:09.304Z,92.77
2022-09-22T19:24:37.384Z,93.03
2022-09-22T19:27:05.949Z,93.19
2022-09-22T19:29:33.172Z,93.21
2022-09-22T19:32:01.471Z,92.77
2022-09-22T19:34:28.611Z,92.48
2022-09-22T19:36:55.680Z,92.07
2022-09-22T19:39:23.151Z,92.00
2022-09-22T19:41:50.616Z,91.67
2022-09-22T19:44:19.733Z,91.24
2022-09-22T19:46:47.615Z,91.93
2022-09-22T19:49:15.284Z,91.39
2022-09-22T19:51:42.711Z,90.98
2022-09-22T19:54:09.522Z,90.11
2022-09-22T19:56:36.623Z,89.83
2022-09-22T19:59:06.081Z,89.41
2022-09-22T20:01:41.684Z,89.03
2022-09-22T20:04:17.929Z,88.64
2022-09-22T20:06:46.305Z,88.99
2022-09-22T20:09:12.881Z,88.92
2022-09-22T20:11:47.916Z,88.97
2022-09-22T20:14:27.007Z,88.73
2022-09-22T20:16:59.734Z,89.50
2022-09-22T20:19:27.750Z,89.30
2022-09-22T20:22:17.526Z,89.97
2022-09-22T20:24:54.157Z,90.57
2022-09-22T20:27:29.656Z,90.79
2022-09-22T20:29:57.420Z,90.25
2022-09-22T20:32:26.026Z,90.19
2022-09-22T20:34:54.266Z,90.29
2022-09-22T20:37:21.796Z,91.03
2022-09-22T20:39:48.387Z,90.89
2022-09-22T20:42:15.524Z,90.43
2022-09-22T20:44:42.480Z,90.69
2022-09-22T20:47:25.273Z,90.09
2022-09-22T20:49:52.187Z,91.23
2022-09-22T20:52:20.515Z,91.51
2022-09-22T20:54:47.533Z,90.82
2022-09-22T20:57:14.439Z,90.79
2022-09-22T20:59:41.503Z,90.96
2022-09-22T21:02:10.284Z,90.89
2022-09-22T21:04:37.072Z,91.31
2022-09-22T21:07:04.021Z,91.48
2022-09-22T21:09:49.176Z,91.45
2022-09-22T21:12:15.772Z,92.26
2022-09-22T21:14:45.931Z,92.66
2022-09-22T21:17:13.756Z,92.80
2022-09-22T21:19:40.911Z,93.81
2022-09-22T21:22:07.849Z,94.16
2022-09-22T21:24:34.654Z,94.35
2022-09-22T21:27:01.282Z,94.87
2022-09-22T21:29:29.131Z,95.28
2022-09-22T21:31:56.784Z,94.86
2022-09-22T21:34:24.369Z,95.45
2022-09-22T21:36:51.400Z,95.57
2022-09-22T21:39:18.157Z,95.12
2022-09-22T21:41:44.822Z,95.00
2022-09-22T21:44:11.456Z,95.93
2022-09-22T21:46:40.931Z,95.77
2022-09-22T21:49:09.034Z,95.09
2022-09-22T21:51:42.178Z,95.67
2022-09-22T21:54:13.345Z,95.70
2022-09-22T21:56:40.136Z,96.25
2022-09-22T21:59:06.954Z,96.55
2022-09-22T22:01:36.795Z,96.61
2022-09-22T22:04:07.966Z,96.63
2022-09-22T22:06:40.929Z,96.70
2022-09-22T22:09:17.436Z,95.90
2022-09-22T22:11:49.434Z,95.24
2022-09-22T22:14:20.577Z,95.45
2022-09-22T22:16:50.058Z,95.46
2022-09-22T22:19:20.219Z,95.74
2022-09-22T22:21:50.394Z,95.58
2022-09-22T22:24:19.051Z,95.99
2022-09-22T22:26:47.458Z,95.54
2022-09-22T22:29:14.592Z,95.41
2022-09-22T22:31:42.048Z,95.84
2022-09-22T22:34:13.289Z,96.36
2022-09-22T22:36:40.841Z,96.30
2022-09-22T22:39:09.568Z,96.67
2022-09-22T22:41:36.452Z,96.54
2022-09-22T22:44:03.351Z,96.71
2022-09-22T22:46:30.037Z,96.20
2022-09-22T22:48:57.748Z,96.34
2022-09-22T22:51:24.862Z,96.44
2022-09-22T22:53:53.414Z,96.31
2022-09-22T22:56:22.867Z,95.87
2022-09-22T22:58:50.831Z,96.17
2022-09-22T23:01:17.617Z,96.43
2022-09-22T23:03:50.698Z,96.39
2022-09-22T23:06:20.039Z,95.81
2022-09-22T23:08:47.149Z,95.71
2022-09-22T23:11:21.226Z,95.31
2022-09-22T23:13:50.996Z,95.40
2022-09-22T23:16:23.801Z,95.57
2022-09-22T23:18:51.578Z,96.10
2022-09-22T23:21:20.399Z,95.67
2022-09-22T23:23:48.064Z,95.58
2022-09-22T23:26:16.047Z,95.26
2022-09-22T23:28:42.878Z,95.24
2022-09-22T23:31:13.765Z,94.98
2022-09-22T23:33:46.060Z,95.00
2022-09-22T23:36:15.187Z,94.72
2022-09-22T23:38:41.917Z,94.47
2022-09-22T23:41:08.896Z,94.95
2022-09-22T23:43:35.606Z,94.80
2022-09-22T23:46:04.674Z,94.68
2022-09-22T23:48:33.175Z,94.13
2022-09-22T23:51:00.360Z,94.79
2022-09-22T23:53:36.216Z,94.28
2022-09-22T23:56:03.821Z,94.66
2022-09-22T23:58:31.311Z,94.43
